Sweden, Maine
Current Conditions -  °F | °C
As of 3:54 AM on Thursday 27 Nov 2014 (Local Time) from KIZG Reporting Station
Light Snow Light Snow  
Wind Chill: 26°   Ceiling: NA
Heat Index: 31°   Visibility: 3mi
Dew Point: 29°   Wind: 5mph
Humidity: 92%   Direction: 340°NNW
Pressure: 29.77"   Gusts: NA
Location:  44.1001°N, 70.6448°W
Report Text: KIZG 270854Z AUTO 34004KT 3SM -SN BR M01/M02 A2977 RMK AO2 SLP086 P0001 60005 T10061017 50005 $
Loading
Personal Weather Stations






























Interactive Weather Map New forecast layout! Learn more

10-Day Weather Forecast

Advertisements
Track Severe Weather on mobile